Time;durP1;ratioP1;P1;durP2;ratioP2;P2;SDS_P1;SDS_P2;PMS_P1;PMS_P2;Temp;Humidity;BMP_temperature;BMP_pressure;BME280_temperature;BME280_humidity;BME280_pressure;Samples;Min_cycle;Max_cycle;Signal;HPM_P1;HPM_P2
2023/03/23 00:00:43;;;;;;;2.17;1.00;;;;;;;;;;6118850;23;20444;-79
2023/03/23 00:03:09;;;;;;;2.45;1.10;;;;;;;;;;6095365;23;20013;-79
2023/03/23 00:05:36;;;;;;;2.05;1.00;;;;;;;;;;6118413;23;20017;-79
2023/03/23 00:08:03;;;;;;;4.30;1.10;;;;;;;;;;6095516;23;20024;-79
2023/03/23 00:10:32;;;;;;;3.00;1.17;;;;;;;;;;6143943;23;20023;-79
2023/03/23 00:13:02;;;;;;;2.47;1.10;;;;;;;;;;6145894;23;20104;-79
2023/03/23 00:15:30;;;;;;;2.63;1.00;;;;;;;;;;6094381;23;20388;-79
2023/03/23 00:18:02;;;;;;;3.42;1.10;;;;;;;;;;6145006;23;20124;-79
2023/03/23 00:20:39;;;;;;;2.15;1.00;;;;;;;;;;6118902;23;20420;-78
2023/03/23 00:23:06;;;;;;;2.65;1.15;;;;;;;;;;6122411;23;20435;-79
2023/03/23 00:25:31;;;;;;;3.17;1.00;;;;;;;;;;6118747;23;20005;-79
2023/03/23 00:27:57;;;;;;;2.28;1.15;;;;;;;;;;6096711;23;20486;-78
2023/03/23 00:30:22;;;;;;;2.03;1.00;;;;;;;;;;6119794;23;20028;-79
2023/03/23 00:32:48;;;;;;;2.42;1.10;;;;;;;;;;6121024;23;20129;-79
2023/03/23 00:35:13;;;;;;;3.53;1.33;;;;;;;;;;6146782;23;20068;-79
2023/03/23 00:37:39;;;;;;;1.73;0.93;;;;;;;;;;6095910;23;20017;-79
2023/03/23 00:40:09;;;;;;;2.08;1.15;;;;;;;;;;6146162;23;20017;-79
2023/03/23 00:42:37;;;;;;;3.22;1.20;;;;;;;;;;6145869;23;20026;-79
2023/03/23 00:45:03;;;;;;;;;;;;;;;;;;6122320;23;20080;-79
2023/03/23 00:47:30;;;;;;;2.30;1.00;;;;;;;;;;6169063;23;19979;-80
2023/03/23 00:49:56;;;;;;;3.90;1.20;;;;;;;;;;6146333;23;20041;-80
2023/03/23 00:52:22;;;;;;;3.95;1.20;;;;;;;;;;6146182;23;20024;-80
2023/03/23 00:54:47;;;;;;;2.40;1.00;;;;;;;;;;6095820;23;20028;-79
2023/03/23 00:57:12;;;;;;;3.17;1.30;;;;;;;;;;6120913;23;20014;-79
2023/03/23 00:59:38;;;;;;;2.75;1.02;;;;;;;;;;6120672;23;20482;-80
2023/03/23 01:02:03;;;;;;;2.33;0.98;;;;;;;;;;6119379;23;20021;-80
2023/03/23 01:04:31;;;;;;;3.55;1.20;;;;;;;;;;6096144;23;20014;-79
2023/03/23 01:06:56;;;;;;;;;;;;;;;;;;6146394;23;20022;-80
2023/03/23 01:09:22;;;;;;;3.60;1.33;;;;;;;;;;6145934;23;19962;-80
2023/03/23 01:11:49;;;;;;;3.45;1.15;;;;;;;;;;6095825;23;20031;-79
2023/03/23 01:14:17;;;;;;;2.45;1.15;;;;;;;;;;6078335;23;20025;-79
2023/03/23 01:16:43;;;;;;;3.75;1.27;;;;;;;;;;6119999;23;20024;-79
2023/03/23 01:19:09;;;;;;;3.15;1.10;;;;;;;;;;6145703;23;20014;-79
2023/03/23 01:21:35;;;;;;;2.83;1.40;;;;;;;;;;6095807;23;20013;-79
2023/03/23 01:24:01;;;;;;;3.53;1.00;;;;;;;;;;6146229;23;20351;-79
2023/03/23 01:26:27;;;;;;;3.22;1.23;;;;;;;;;;6145785;23;20020;-79
2023/03/23 01:28:52;;;;;;;3.05;1.30;;;;;;;;;;6120485;23;20025;-79
2023/03/23 01:31:20;;;;;;;2.88;1.25;;;;;;;;;;6093905;23;20017;-79
2023/03/23 01:33:46;;;;;;;;;;;;;;;;;;6121529;23;20523;-79
2023/03/23 01:36:17;;;;;;;3.45;1.20;;;;;;;;;;6169031;23;19936;-79
2023/03/23 01:38:44;;;;;;;4.97;1.40;;;;;;;;;;6120663;23;20063;-79
2023/03/23 01:41:10;;;;;;;2.65;1.45;;;;;;;;;;6118777;23;20108;-79
2023/03/23 01:43:36;;;;;;;4.00;1.23;;;;;;;;;;6147000;23;20025;-79
2023/03/23 01:46:02;;;;;;;2.67;1.15;;;;;;;;;;6144907;23;20583;-79
2023/03/23 01:48:35;;;;;;;2.50;1.10;;;;;;;;;;6146261;23;20752;-79
2023/03/23 01:51:13;;;;;;;2.40;1.15;;;;;;;;;;6119317;23;20317;-79
2023/03/23 01:53:41;;;;;;;;;;;;;;;;;;6121117;23;20017;-79
2023/03/23 01:56:08;;;;;;;5.55;1.50;;;;;;;;;;6167835;23;19975;-79
2023/03/23 01:58:34;;;;;;;2.78;1.13;;;;;;;;;;6120528;23;20517;-79
2023/03/23 02:01:04;;;;;;;5.43;1.42;;;;;;;;;;6145308;23;20052;-80
2023/03/23 02:03:31;;;;;;;3.47;1.27;;;;;;;;;;6096105;23;20010;-79
2023/03/23 02:05:58;;;;;;;3.50;1.60;;;;;;;;;;6094952;23;20020;-79
2023/03/23 02:08:24;;;;;;;3.88;1.38;;;;;;;;;;6145841;23;20010;-79
2023/03/23 02:10:49;;;;;;;2.40;1.10;;;;;;;;;;6095180;23;20009;-79
2023/03/23 02:13:15;;;;;;;2.80;1.27;;;;;;;;;;6121455;23;20022;-79
2023/03/23 02:15:59;;;;;;;2.30;1.10;;;;;;;;;;6094865;23;20021;-79
2023/03/23 02:18:55;;;;;;;3.45;1.20;;;;;;;;;;6145530;23;20021;-79
2023/03/23 02:21:48;;;;;;;2.90;1.15;;;;;;;;;;6145456;23;20414;-79
2023/03/23 02:25:02;;;;;;;3.83;1.50;;;;;;;;;;6119815;23;20080;-79
2023/03/23 02:27:36;;;;;;;4.40;1.45;;;;;;;;;;6026052;23;20031;-79
2023/03/23 02:30:27;;;;;;;2.70;1.25;;;;;;;;;;6003440;23;20029;-79
2023/03/23 02:33:11;;;;;;;2.60;1.15;;;;;;;;;;6002281;23;20031;-79
2023/03/23 02:35:44;;;;;;;2.72;1.27;;;;;;;;;;6025127;23;20049;-78
2023/03/23 02:38:23;;;;;;;2.47;1.05;;;;;;;;;;6003303;23;20083;-79
2023/03/23 02:40:50;;;;;;;2.47;1.23;;;;;;;;;;6001467;23;20050;-79
2023/03/23 02:43:20;;;;;;;2.92;1.25;;;;;;;;;;6004238;23;20050;-79
2023/03/23 02:45:46;;;;;;;2.53;1.20;;;;;;;;;;6024293;23;20022;-79
2023/03/23 02:48:13;;;;;;;3.30;1.20;;;;;;;;;;5979492;23;20019;-79
2023/03/23 02:50:42;;;;;;;2.65;1.30;;;;;;;;;;6024555;23;20353;-79
2023/03/23 02:53:10;;;;;;;3.72;1.63;;;;;;;;;;6003553;23;20094;-79
2023/03/23 02:55:40;;;;;;;3.20;1.50;;;;;;;;;;6025450;23;20023;-78
2023/03/23 02:58:06;;;;;;;2.78;1.25;;;;;;;;;;6055129;23;20018;-78
2023/03/23 03:00:31;;;;;;;3.10;1.33;;;;;;;;;;6094428;23;20021;-78
2023/03/23 03:02:57;;;;;;;2.85;1.30;;;;;;;;;;6119355;23;20021;-78
2023/03/23 03:05:34;;;;;;;2.50;1.15;;;;;;;;;;6144404;23;20028;-79
2023/03/23 03:08:09;;;;;;;;;;;;;;;;;;6120102;23;20017;-78
2023/03/23 03:10:44;;;;;;;3.75;1.40;;;;;;;;;;6118487;23;20337;-78
2023/03/23 03:13:24;;;;;;;3.83;1.40;;;;;;;;;;6118683;23;20013;-78
2023/03/23 03:16:01;;;;;;;2.80;1.33;;;;;;;;;;6144685;23;20017;-77
2023/03/23 03:18:32;;;;;;;3.03;1.17;;;;;;;;;;6146189;23;20018;-78
2023/03/23 03:21:02;;;;;;;3.20;1.30;;;;;;;;;;6117954;23;20546;-78
2023/03/23 03:23:29;;;;;;;2.25;1.10;;;;;;;;;;6095796;23;20009;-78
2023/03/23 03:25:57;;;;;;;3.50;1.60;;;;;;;;;;6144619;23;20025;-78
2023/03/23 03:28:24;;;;;;;2.55;1.35;;;;;;;;;;6095598;23;20075;-79
2023/03/23 03:30:55;;;;;;;4.60;1.25;;;;;;;;;;6117727;23;20020;-78
2023/03/23 03:33:25;;;;;;;2.55;1.30;;;;;;;;;;6094935;23;20021;-78
2023/03/23 03:35:52;;;;;;;3.28;1.27;;;;;;;;;;6119519;23;20375;-78
2023/03/23 03:38:17;;;;;;;3.53;1.40;;;;;;;;;;6119526;23;20152;-78
2023/03/23 03:40:43;;;;;;;4.57;1.30;;;;;;;;;;6119167;23;20116;-78
2023/03/23 03:43:08;;;;;;;4.18;1.30;;;;;;;;;;6119272;23;20515;-79
2023/03/23 03:45:33;;;;;;;3.35;1.27;;;;;;;;;;6144453;23;20045;-79
2023/03/23 03:48:00;;;;;;;3.53;1.17;;;;;;;;;;6095272;23;20017;-79
2023/03/23 03:50:26;;;;;;;2.95;1.20;;;;;;;;;;6117203;23;20532;-79
2023/03/23 03:52:52;;;;;;;4.97;1.27;;;;;;;;;;6145500;23;20022;-80
2023/03/23 03:55:17;;;;;;;2.63;1.17;;;;;;;;;;6118630;23;20520;-80
2023/03/23 03:57:43;;;;;;;3.50;1.27;;;;;;;;;;6120045;23;20092;-80
2023/03/23 04:00:14;;;;;;;4.28;1.52;;;;;;;;;;6096395;23;20087;-79
2023/03/23 04:02:47;;;;;;;3.03;1.33;;;;;;;;;;6121402;23;20041;-79
2023/03/23 04:05:13;;;;;;;3.30;1.17;;;;;;;;;;6146608;23;20017;-79
2023/03/23 04:07:39;;;;;;;2.78;1.30;;;;;;;;;;6121001;23;20013;-79
2023/03/23 04:10:08;;;;;;;3.55;1.27;;;;;;;;;;6147067;23;20324;-80
2023/03/23 04:12:34;;;;;;;3.58;1.40;;;;;;;;;;6119978;23;20770;-80
2023/03/23 04:15:00;;;;;;;3.05;1.50;;;;;;;;;;6121211;23;20482;-80
2023/03/23 04:17:28;;;;;;;3.20;1.13;;;;;;;;;;6095435;23;20017;-80
2023/03/23 04:19:57;;;;;;;2.38;0.95;;;;;;;;;;6147164;23;20080;-80
2023/03/23 04:22:29;;;;;;;2.45;1.20;;;;;;;;;;6121406;23;20089;-80
2023/03/23 04:24:58;;;;;;;2.78;1.17;;;;;;;;;;6121472;23;20021;-79
2023/03/23 04:27:25;;;;;;;3.08;1.33;;;;;;;;;;6096531;23;20451;-79
2023/03/23 04:29:50;;;;;;;2.45;1.10;;;;;;;;;;6146369;23;20014;-80
2023/03/23 04:32:17;;;;;;;3.30;1.30;;;;;;;;;;6096498;23;20017;-81
2023/03/23 04:34:43;;;;;;;2.95;1.50;;;;;;;;;;6146947;23;20033;-79
2023/03/23 04:37:09;;;;;;;3.22;1.35;;;;;;;;;;6120515;23;20368;-79
2023/03/23 04:39:35;;;;;;;3.22;1.25;;;;;;;;;;6146331;23;20018;-81
2023/03/23 04:42:01;;;;;;;2.83;1.40;;;;;;;;;;6119822;23;20026;-80
2023/03/23 04:44:27;;;;;;;3.13;1.40;;;;;;;;;;6120793;23;20044;-81
2023/03/23 04:46:53;;;;;;;2.97;1.42;;;;;;;;;;6119821;23;20028;-81
2023/03/23 04:49:21;;;;;;;3.28;1.60;;;;;;;;;;6096191;23;20482;-81
2023/03/23 04:51:47;;;;;;;2.80;1.38;;;;;;;;;;6145778;23;20394;-81
2023/03/23 04:54:12;;;;;;;3.63;1.50;;;;;;;;;;6121548;23;20052;-81
2023/03/23 04:56:38;;;;;;;3.35;1.60;;;;;;;;;;6120626;23;20029;-80
2023/03/23 04:59:06;;;;;;;2.97;1.40;;;;;;;;;;6120389;23;20025;-81
2023/03/23 05:01:31;;;;;;;3.83;1.65;;;;;;;;;;6120574;23;20017;-82
2023/03/23 05:03:56;;;;;;;3.90;1.60;;;;;;;;;;6146329;23;20025;-80
2023/03/23 05:06:22;;;;;;;4.50;2.13;;;;;;;;;;6119707;23;20014;-79
2023/03/23 05:08:48;;;;;;;4.35;2.00;;;;;;;;;;6095081;23;20085;-80
2023/03/23 05:11:13;;;;;;;4.00;1.80;;;;;;;;;;6119987;23;20519;-79
2023/03/23 05:13:39;;;;;;;4.60;1.90;;;;;;;;;;6146476;23;20040;-82
2023/03/23 05:16:05;;;;;;;3.40;1.80;;;;;;;;;;6145368;23;20043;-81
2023/03/23 05:18:32;;;;;;;3.60;1.60;;;;;;;;;;6096631;23;20018;-79
2023/03/23 05:21:01;;;;;;;3.10;1.77;;;;;;;;;;6119653;23;20044;-81
2023/03/23 05:23:27;;;;;;;3.80;1.90;;;;;;;;;;6120856;23;20493;-82
2023/03/23 05:25:56;;;;;;;3.22;1.58;;;;;;;;;;6145874;23;20021;-81
2023/03/23 05:28:22;;;;;;;3.22;1.73;;;;;;;;;;6120825;23;20506;-80
2023/03/23 05:30:48;;;;;;;3.15;1.67;;;;;;;;;;6095625;23;20021;-81
2023/03/23 05:33:13;;;;;;;2.65;1.27;;;;;;;;;;6121712;23;20379;-84
2023/03/23 05:35:39;;;;;;;4.28;1.70;;;;;;;;;;6117957;23;20013;-79
2023/03/23 05:38:04;;;;;;;3.45;1.50;;;;;;;;;;6096224;23;20029;-79
2023/03/23 05:40:30;;;;;;;4.18;1.80;;;;;;;;;;6117455;23;20019;-79
2023/03/23 05:42:58;;;;;;;3.38;1.40;;;;;;;;;;6145553;23;20030;-79
2023/03/23 05:45:24;;;;;;;3.00;1.50;;;;;;;;;;6106162;23;20453;-79
2023/03/23 05:47:49;;;;;;;2.72;1.40;;;;;;;;;;6120357;23;20072;-80
2023/03/23 05:50:15;;;;;;;3.45;1.42;;;;;;;;;;6094208;23;20018;-81
2023/03/23 05:52:41;;;;;;;3.92;1.45;;;;;;;;;;6096357;23;20781;-80
2023/03/23 05:55:07;;;;;;;4.75;1.60;;;;;;;;;;6118841;23;20018;-81
2023/03/23 05:57:33;;;;;;;3.72;1.55;;;;;;;;;;6120015;23;20084;-80
2023/03/23 05:59:59;;;;;;;3.78;1.30;;;;;;;;;;6118898;23;20352;-80
2023/03/23 06:02:28;;;;;;;3.15;1.50;;;;;;;;;;6145704;23;20052;-80
2023/03/23 06:04:57;;;;;;;4.07;1.13;;;;;;;;;;6145815;23;20391;-80
2023/03/23 06:07:24;;;;;;;4.72;1.60;;;;;;;;;;6095448;23;20033;-80
2023/03/23 06:09:50;;;;;;;5.28;1.77;;;;;;;;;;6119061;23;20096;-80
2023/03/23 06:12:19;;;;;;;3.53;1.50;;;;;;;;;;6120450;23;20415;-80
2023/03/23 06:14:46;;;;;;;2.97;1.30;;;;;;;;;;6095477;23;20024;-81
2023/03/23 06:17:11;;;;;;;3.30;1.15;;;;;;;;;;6119706;23;20080;-81
2023/03/23 06:19:37;;;;;;;3.42;1.27;;;;;;;;;;6145239;23;20021;-80
2023/03/23 06:22:03;;;;;;;3.22;1.25;;;;;;;;;;6145647;23;20017;-80
2023/03/23 06:24:28;;;;;;;3.25;1.40;;;;;;;;;;6145160;23;20024;-80
2023/03/23 06:26:54;;;;;;;4.03;1.42;;;;;;;;;;6146023;23;20021;-82
2023/03/23 06:29:20;;;;;;;4.95;1.20;;;;;;;;;;6120146;23;20020;-82
2023/03/23 06:31:54;;;;;;;3.80;1.42;;;;;;;;;;6120173;23;20041;-81
2023/03/23 06:34:19;;;;;;;2.72;1.15;;;;;;;;;;6120262;23;20465;-81
2023/03/23 06:36:44;;;;;;;3.05;1.35;;;;;;;;;;6145955;23;20018;-82
2023/03/23 06:39:10;;;;;;;3.45;1.27;;;;;;;;;;6144679;23;20100;-82
2023/03/23 06:41:35;;;;;;;4.55;1.60;;;;;;;;;;6119101;23;20028;-83
2023/03/23 06:44:01;;;;;;;3.30;1.60;;;;;;;;;;6118490;23;20513;-83
2023/03/23 06:46:27;;;;;;;4.55;1.50;;;;;;;;;;6094546;23;20025;-83
2023/03/23 06:48:53;;;;;;;3.70;1.40;;;;;;;;;;6144893;23;20514;-77
2023/03/23 06:51:19;;;;;;;3.50;1.35;;;;;;;;;;6094138;23;20020;-78
2023/03/23 06:53:44;;;;;;;3.50;1.27;;;;;;;;;;6146209;23;20017;-78
2023/03/23 06:56:11;;;;;;;4.18;1.85;;;;;;;;;;6117447;23;20017;-77
2023/03/23 06:58:37;;;;;;;3.63;1.43;;;;;;;;;;6119559;23;20020;-77
2023/03/23 07:01:03;;;;;;;2.35;1.20;;;;;;;;;;6093016;23;20249;-77
2023/03/23 07:03:28;;;;;;;3.05;1.42;;;;;;;;;;6145773;23;20024;-77
2023/03/23 07:05:54;;;;;;;3.72;1.48;;;;;;;;;;6142662;23;20510;-77
2023/03/23 07:08:20;;;;;;;4.50;1.67;;;;;;;;;;6119214;23;20072;-77
2023/03/23 07:10:47;;;;;;;4.35;1.60;;;;;;;;;;6119257;23;20021;-77
2023/03/23 07:13:13;;;;;;;4.80;1.50;;;;;;;;;;6119664;23;20101;-77
2023/03/23 07:15:39;;;;;;;3.58;1.10;;;;;;;;;;6093269;23;20491;-78
2023/03/23 07:18:04;;;;;;;3.25;1.50;;;;;;;;;;6145477;23;20045;-79
2023/03/23 07:20:30;;;;;;;3.45;1.48;;;;;;;;;;6128689;23;20048;-78
2023/03/23 07:22:55;;;;;;;3.53;1.70;;;;;;;;;;6104045;23;20017;-78
2023/03/23 07:25:21;;;;;;;3.22;1.48;;;;;;;;;;6144473;23;20021;-78
2023/03/23 07:27:46;;;;;;;6.18;1.50;;;;;;;;;;6145982;23;20017;-79
2023/03/23 07:30:14;;;;;;;3.08;1.55;;;;;;;;;;6145396;23;20017;-78
2023/03/23 07:32:40;;;;;;;5.72;1.83;;;;;;;;;;6126834;23;20021;-77
2023/03/23 07:35:05;;;;;;;3.97;1.42;;;;;;;;;;6144265;23;20022;-78
2023/03/23 07:37:32;;;;;;;4.18;1.83;;;;;;;;;;6119257;23;20024;-77
2023/03/23 07:39:57;;;;;;;4.93;1.80;;;;;;;;;;6094138;23;20690;-78
2023/03/23 07:42:22;;;;;;;5.40;1.52;;;;;;;;;;6145071;23;20076;-78
2023/03/23 07:44:48;;;;;;;3.47;1.67;;;;;;;;;;6145505;23;20018;-78
2023/03/23 07:47:13;;;;;;;8.82;2.10;;;;;;;;;;6145031;23;20039;-78
2023/03/23 07:49:39;;;;;;;2.80;1.30;;;;;;;;;;6118625;23;20021;-78
2023/03/23 07:52:05;;;;;;;3.95;1.75;;;;;;;;;;6093150;23;20021;-78
2023/03/23 07:54:31;;;;;;;3.30;1.70;;;;;;;;;;6118439;23;20006;-78
2023/03/23 07:56:56;;;;;;;4.28;1.33;;;;;;;;;;6118671;23;20384;-77
2023/03/23 07:59:22;;;;;;;3.53;1.60;;;;;;;;;;6145374;23;20456;-77
2023/03/23 08:01:47;;;;;;;4.03;1.88;;;;;;;;;;6118780;23;20013;-77
2023/03/23 08:04:13;;;;;;;3.83;1.60;;;;;;;;;;6119560;23;20067;-76
2023/03/23 08:06:39;;;;;;;4.35;1.70;;;;;;;;;;6119163;23;20095;-76
2023/03/23 08:09:08;;;;;;;4.10;1.75;;;;;;;;;;6118757;23;20022;-78
2023/03/23 08:11:37;;;;;;;3.10;1.45;;;;;;;;;;6144223;23;20013;-78
2023/03/23 08:14:02;;;;;;;3.45;1.52;;;;;;;;;;6119193;23;20396;-78
2023/03/23 08:16:28;;;;;;;4.30;1.70;;;;;;;;;;6093540;23;20020;-76
2023/03/23 08:18:53;;;;;;;3.55;1.83;;;;;;;;;;6118510;23;20080;-78
2023/03/23 08:21:20;;;;;;;3.92;1.60;;;;;;;;;;6117844;23;20469;-76
2023/03/23 08:23:46;;;;;;;5.35;1.77;;;;;;;;;;6120812;23;20017;-77
2023/03/23 08:26:11;;;;;;;3.67;1.80;;;;;;;;;;6118773;23;20071;-77
2023/03/23 08:28:37;;;;;;;3.65;1.70;;;;;;;;;;6118798;23;20077;-77
2023/03/23 08:31:08;;;;;;;3.45;1.70;;;;;;;;;;6144089;23;20018;-76
2023/03/23 08:33:33;;;;;;;4.95;1.75;;;;;;;;;;6119006;23;20025;-78
2023/03/23 08:36:00;;;;;;;4.78;1.50;;;;;;;;;;6094028;23;20112;-76
2023/03/23 08:38:27;;;;;;;3.28;1.77;;;;;;;;;;6145147;23;20045;-77
2023/03/23 08:40:58;;;;;;;3.70;1.80;;;;;;;;;;6093788;23;20025;-79
2023/03/23 08:43:23;;;;;;;4.53;2.03;;;;;;;;;;6094637;23;20084;-77
2023/03/23 08:45:49;;;;;;;4.38;1.48;;;;;;;;;;6093821;23;20580;-77
2023/03/23 08:48:15;;;;;;;4.18;1.58;;;;;;;;;;6121725;23;20013;-77
2023/03/23 08:50:40;;;;;;;3.00;1.33;;;;;;;;;;6145401;23;20220;-78
2023/03/23 08:53:07;;;;;;;3.58;1.50;;;;;;;;;;6121688;23;20388;-78
2023/03/23 08:55:32;;;;;;;4.95;1.42;;;;;;;;;;6095616;23;20403;-78
2023/03/23 08:57:57;;;;;;;2.90;1.30;;;;;;;;;;6121172;23;20022;-78
2023/03/23 09:00:25;;;;;;;2.80;1.30;;;;;;;;;;6119816;23;20077;-77
2023/03/23 09:02:53;;;;;;;3.28;1.40;;;;;;;;;;6145875;23;20017;-78
2023/03/23 09:05:21;;;;;;;4.10;1.60;;;;;;;;;;6095650;23;20391;-77
2023/03/23 09:07:49;;;;;;;2.75;1.30;;;;;;;;;;6121341;23;20718;-77
2023/03/23 09:10:15;;;;;;;3.53;1.25;;;;;;;;;;6121117;23;20474;-77
2023/03/23 09:12:42;;;;;;;3.03;1.10;;;;;;;;;;6120336;23;20045;-78
2023/03/23 09:15:09;;;;;;;4.23;1.20;;;;;;;;;;6120151;23;20021;-77
2023/03/23 09:17:37;;;;;;;3.08;1.25;;;;;;;;;;6120555;23;20014;-77
2023/03/23 09:20:10;;;;;;;2.90;1.30;;;;;;;;;;6120423;23;20009;-77
2023/03/23 09:22:35;;;;;;;3.65;1.30;;;;;;;;;;6121112;23;20024;-77
2023/03/23 09:25:01;;;;;;;3.33;1.30;;;;;;;;;;6120057;23;20025;-78
2023/03/23 09:27:27;;;;;;;3.08;1.10;;;;;;;;;;6145270;23;20022;-77
2023/03/23 09:29:52;;;;;;;2.40;1.10;;;;;;;;;;6120051;23;20013;-78
2023/03/23 09:32:19;;;;;;;3.10;1.17;;;;;;;;;;6095052;23;20018;-79
2023/03/23 09:34:45;;;;;;;2.10;1.00;;;;;;;;;;6120567;23;20021;-77
2023/03/23 09:37:12;;;;;;;3.05;1.23;;;;;;;;;;6119580;23;20010;-78
2023/03/23 09:39:38;;;;;;;2.25;0.90;;;;;;;;;;6120189;23;20045;-77
2023/03/23 09:42:21;;;;;;;3.08;1.17;;;;;;;;;;6119501;23;20052;-78
2023/03/23 09:45:10;;;;;;;2.15;0.90;;;;;;;;;;6146015;23;20483;-80
2023/03/23 09:47:50;;;;;;;1.38;0.60;;;;;;;;;;6070726;23;20017;-77
2023/03/23 09:50:19;;;;;;;3.65;1.05;;;;;;;;;;6118391;23;20572;-77
2023/03/23 09:52:52;;;;;;;3.10;0.90;;;;;;;;;;6119473;23;20021;-76
2023/03/23 09:55:19;;;;;;;1.77;0.85;;;;;;;;;;6119282;23;20013;-78
2023/03/23 09:58:09;;;;;;;2.10;0.90;;;;;;;;;;6120783;23;20017;-78
2023/03/23 10:00:37;;;;;;;2.92;0.80;;;;;;;;;;6118608;23;20412;-77
2023/03/23 10:03:11;;;;;;;2.03;0.70;;;;;;;;;;6121054;23;20424;-77
2023/03/23 10:05:40;;;;;;;3.03;0.93;;;;;;;;;;6094711;23;20017;-78
2023/03/23 10:08:21;;;;;;;3.17;0.90;;;;;;;;;;6146557;23;20761;-78
2023/03/23 10:10:52;;;;;;;2.25;0.80;;;;;;;;;;6119144;23;20027;-76
2023/03/23 10:13:59;;;;;;;2.50;0.80;;;;;;;;;;6120018;23;20060;-78
2023/03/23 10:16:28;;;;;;;2.55;0.90;;;;;;;;;;6119076;23;20017;-77
2023/03/23 10:18:57;;;;;;;2.53;0.85;;;;;;;;;;6119615;23;20518;-78
2023/03/23 10:21:23;;;;;;;1.60;0.73;;;;;;;;;;6145874;23;20452;-77
2023/03/23 10:23:56;;;;;;;1.92;0.60;;;;;;;;;;6120815;23;20172;-78
2023/03/23 10:26:45;;;;;;;2.08;0.80;;;;;;;;;;6145530;23;20104;-77
2023/03/23 10:29:19;;;;;;;2.03;0.70;;;;;;;;;;6129613;23;20017;-78
2023/03/23 10:32:03;;;;;;;2.05;0.80;;;;;;;;;;6119375;23;20660;-78
2023/03/23 10:34:32;;;;;;;2.53;0.90;;;;;;;;;;6119380;23;20017;-78
2023/03/23 10:37:15;;;;;;;2.42;0.75;;;;;;;;;;6145541;23;20048;-78
2023/03/23 10:39:47;;;;;;;2.22;1.05;;;;;;;;;;6145821;23;20495;-78
2023/03/23 10:42:22;;;;;;;3.15;0.90;;;;;;;;;;6095541;23;20443;-78
2023/03/23 10:44:48;;;;;;;5.05;0.80;;;;;;;;;;6145046;23;20022;-79
2023/03/23 10:47:15;;;;;;;1.58;0.60;;;;;;;;;;6095833;23;20019;-78
2023/03/23 10:49:47;;;;;;;2.57;0.70;;;;;;;;;;6119972;23;20024;-78
2023/03/23 10:52:46;;;;;;;2.45;0.77;;;;;;;;;;6145781;23;20036;-79
2023/03/23 10:55:17;;;;;;;1.90;0.80;;;;;;;;;;6070853;23;20037;-79
2023/03/23 10:57:59;;;;;;;2.63;0.80;;;;;;;;;;6119691;23;20005;-78
2023/03/23 11:00:28;;;;;;;2.17;0.80;;;;;;;;;;6093809;23;20403;-77
2023/03/23 11:03:13;;;;;;;2.05;0.80;;;;;;;;;;6119826;23;20013;-78
2023/03/23 11:05:43;;;;;;;3.58;1.10;;;;;;;;;;6144672;23;20020;-78
2023/03/23 11:08:16;;;;;;;2.25;0.82;;;;;;;;;;6120200;23;20013;-78
2023/03/23 11:10:52;;;;;;;2.20;0.80;;;;;;;;;;6119015;23;20017;-78
2023/03/23 11:13:19;;;;;;;2.10;0.73;;;;;;;;;;6119428;23;20478;-78
2023/03/23 11:15:46;;;;;;;2.20;0.80;;;;;;;;;;6117578;23;20412;-78
2023/03/23 11:18:47;;;;;;;1.80;0.63;;;;;;;;;;6119650;23;20887;-77
2023/03/23 11:21:13;;;;;;;2.17;0.80;;;;;;;;;;6024551;23;20015;-79
2023/03/23 11:23:42;;;;;;;2.07;0.87;;;;;;;;;;6119520;23;20022;-78
2023/03/23 11:26:30;;;;;;;2.75;1.13;;;;;;;;;;6091760;23;20942;-79
2023/03/23 11:28:58;;;;;;;1.75;0.80;;;;;;;;;;6118963;23;20021;-78
2023/03/23 11:31:29;;;;;;;2.47;1.00;;;;;;;;;;6118191;23;20075;-76
2023/03/23 11:34:05;;;;;;;2.47;1.08;;;;;;;;;;6144793;23;20025;-78
2023/03/23 11:36:36;;;;;;;2.90;0.90;;;;;;;;;;6094531;23;20443;-79
2023/03/23 11:39:04;;;;;;;3.10;0.85;;;;;;;;;;6093682;23;20010;-79
2023/03/23 11:41:34;;;;;;;1.25;0.60;;;;;;;;;;6095403;23;20166;-79
2023/03/23 11:44:08;;;;;;;3.13;0.80;;;;;;;;;;6118729;23;20025;-80
2023/03/23 11:46:51;;;;;;;2.53;0.75;;;;;;;;;;6093826;23;20013;-79
2023/03/23 11:49:42;;;;;;;1.77;0.68;;;;;;;;;;6119467;23;20014;-79
2023/03/23 11:52:21;;;;;;;2.00;0.80;;;;;;;;;;6143357;23;20089;-83
2023/03/23 11:54:52;;;;;;;2.05;0.80;;;;;;;;;;6120847;23;20029;-84
2023/03/23 11:57:18;;;;;;;2.28;0.90;;;;;;;;;;6145280;23;20330;-82
2023/03/23 11:59:43;;;;;;;2.28;0.98;;;;;;;;;;6120559;23;20363;-83
2023/03/23 12:02:38;;;;;;;1.63;0.70;;;;;;;;;;6119066;23;20006;-82
2023/03/23 12:05:32;;;;;;;3.03;0.70;;;;;;;;;;6145007;23;20021;-83
2023/03/23 12:08:21;;;;;;;1.98;0.90;;;;;;;;;;6119229;23;20097;-82
2023/03/23 12:11:13;;;;;;;2.58;1.00;;;;;;;;;;6094067;23;20088;-82
2023/03/23 12:14:07;;;;;;;2.88;0.77;;;;;;;;;;6089333;23;20105;-83
2023/03/23 12:16:35;;;;;;;1.67;0.60;;;;;;;;;;6094111;23;20017;-82
2023/03/23 12:19:14;;;;;;;2.25;0.80;;;;;;;;;;6145239;23;20398;-85
2023/03/23 12:22:05;;;;;;;2.00;0.70;;;;;;;;;;6146517;23;20043;-81
2023/03/23 12:25:03;;;;;;;2.28;0.88;;;;;;;;;;6146494;23;20013;-84
2023/03/23 12:27:29;;;;;;;2.53;0.90;;;;;;;;;;6120162;23;20014;-84
2023/03/23 12:30:26;;;;;;;3.30;0.80;;;;;;;;;;6145971;23;20025;-83
2023/03/23 12:33:21;;;;;;;2.05;0.77;;;;;;;;;;6146174;23;20025;-83
2023/03/23 12:35:49;;;;;;;1.95;0.77;;;;;;;;;;6146103;23;20086;-83
2023/03/23 12:38:34;;;;;;;2.28;0.70;;;;;;;;;;6147423;23;20013;-83
2023/03/23 12:41:32;;;;;;;3.58;0.82;;;;;;;;;;6145412;23;20320;-83
2023/03/23 12:44:26;;;;;;;1.90;0.70;;;;;;;;;;6145006;23;20132;-83
2023/03/23 12:47:18;;;;;;;2.42;0.88;;;;;;;;;;6115848;23;20471;-83
2023/03/23 12:49:53;;;;;;;2.40;1.10;;;;;;;;;;6095259;23;20448;-83
2023/03/23 12:52:35;;;;;;;2.42;0.65;;;;;;;;;;6145415;23;20109;-82
2023/03/23 12:55:23;;;;;;;2.85;0.80;;;;;;;;;;6119848;23;20525;-83
2023/03/23 12:58:05;;;;;;;2.70;1.00;;;;;;;;;;6076451;23;20109;-82
2023/03/23 13:01:00;;;;;;;3.28;1.05;;;;;;;;;;6119608;23;20032;-83
2023/03/23 13:03:33;;;;;;;2.67;0.57;;;;;;;;;;6146512;23;20018;-84
2023/03/23 13:06:13;;;;;;;2.10;0.70;;;;;;;;;;6118852;23;20028;-84
2023/03/23 13:08:50;;;;;;;3.53;0.98;;;;;;;;;;6120482;23;20017;-84
2023/03/23 13:11:26;;;;;;;2.40;0.75;;;;;;;;;;6095922;23;20466;-83
2023/03/23 13:13:56;;;;;;;1.85;0.60;;;;;;;;;;6119793;23;20043;-82
2023/03/23 13:16:36;;;;;;;2.20;0.80;;;;;;;;;;6095365;23;20013;-83
2023/03/23 13:19:35;;;;;;;2.00;0.80;;;;;;;;;;6119908;23;20092;-83
2023/03/23 13:22:15;;;;;;;1.80;0.70;;;;;;;;;;6146301;23;20515;-83
2023/03/23 13:24:50;;;;;;;2.75;0.85;;;;;;;;;;6120305;23;20643;-83
2023/03/23 13:27:17;;;;;;;2.60;0.90;;;;;;;;;;6145531;23;20096;-83
2023/03/23 13:29:46;;;;;;;2.60;0.93;;;;;;;;;;6120708;23;20539;-83
2023/03/23 13:32:20;;;;;;;2.63;1.00;;;;;;;;;;6118098;23;20076;-82
2023/03/23 13:34:47;;;;;;;3.05;1.10;;;;;;;;;;6119521;23;20044;-84
2023/03/23 13:37:16;;;;;;;1.97;0.60;;;;;;;;;;6118384;23;20017;-83
2023/03/23 13:40:17;;;;;;;2.25;0.80;;;;;;;;;;6146053;23;20253;-83
2023/03/23 13:42:51;;;;;;;3.30;0.70;;;;;;;;;;6119998;23;20049;-83
2023/03/23 13:45:17;;;;;;;2.17;0.70;;;;;;;;;;6118829;23;20093;-83
2023/03/23 13:47:44;;;;;;;3.45;0.90;;;;;;;;;;6146911;23;20436;-84
2023/03/23 13:50:17;;;;;;;2.17;0.80;;;;;;;;;;6119806;23;20037;-83
2023/03/23 13:52:45;;;;;;;2.30;0.70;;;;;;;;;;6146256;23;20052;-83
2023/03/23 13:55:20;;;;;;;3.22;0.70;;;;;;;;;;6144583;23;20040;-83
2023/03/23 13:58:05;;;;;;;2.47;0.85;;;;;;;;;;6119953;23;20064;-85
2023/03/23 14:00:31;;;;;;;1.85;0.68;;;;;;;;;;6142078;23;20013;-83
2023/03/23 14:03:09;;;;;;;1.83;0.70;;;;;;;;;;6146382;23;20299;-84
2023/03/23 14:05:37;;;;;;;1.75;0.75;;;;;;;;;;6145369;23;20049;-83
2023/03/23 14:08:09;;;;;;;3.22;0.80;;;;;;;;;;6147320;23;20023;-83
2023/03/23 14:11:02;;;;;;;1.50;0.60;;;;;;;;;;6144612;23;20018;-84
2023/03/23 14:13:56;;;;;;;1.85;0.65;;;;;;;;;;6129096;23;20026;-83
2023/03/23 14:16:24;;;;;;;2.72;0.73;;;;;;;;;;6145526;23;20769;-83
2023/03/23 14:19:00;;;;;;;1.77;0.60;;;;;;;;;;6119179;23;20478;-83
2023/03/23 14:21:32;;;;;;;2.38;0.77;;;;;;;;;;6094464;23;20033;-83
2023/03/23 14:24:09;;;;;;;3.08;0.88;;;;;;;;;;6145532;23;20014;-82
2023/03/23 14:26:35;;;;;;;;;;;;;;;;;;6118954;23;20013;-82
2023/03/23 14:29:03;;;;;;;2.33;1.02;;;;;;;;;;6143389;23;19908;-82
2023/03/23 14:31:28;;;;;;;1.83;0.70;;;;;;;;;;6145002;23;20024;-82
2023/03/23 14:33:56;;;;;;;2.10;0.70;;;;;;;;;;6119953;23;20025;-83
2023/03/23 14:36:23;;;;;;;1.98;0.77;;;;;;;;;;6119177;23;20526;-83
2023/03/23 14:38:56;;;;;;;3.23;0.90;;;;;;;;;;6120076;23;20025;-82
2023/03/23 14:41:22;;;;;;;3.00;0.88;;;;;;;;;;6145057;23;20268;-82
2023/03/23 14:43:48;;;;;;;3.10;0.82;;;;;;;;;;6119424;23;20021;-84
2023/03/23 14:46:14;;;;;;;3.40;1.00;;;;;;;;;;6093051;23;20020;-83
2023/03/23 14:48:42;;;;;;;2.20;0.80;;;;;;;;;;6145416;23;20054;-83
2023/03/23 14:51:18;;;;;;;3.45;1.00;;;;;;;;;;6119019;23;20379;-83
2023/03/23 14:53:43;;;;;;;2.53;0.90;;;;;;;;;;6120105;23;20021;-83
2023/03/23 14:56:13;;;;;;;2.42;0.80;;;;;;;;;;6091801;23;20021;-83
2023/03/23 14:58:38;;;;;;;4.40;0.95;;;;;;;;;;6118758;23;20363;-83
2023/03/23 15:01:10;;;;;;;2.50;0.70;;;;;;;;;;6144318;23;20017;-84
2023/03/23 15:04:11;;;;;;;3.00;0.77;;;;;;;;;;6119407;23;20068;-83
2023/03/23 15:06:38;;;;;;;2.35;0.80;;;;;;;;;;6129525;23;20542;-83